Аэропорт: Абакан. Абакан

ICAO: UNAA

METAR:
2019/03/26 13:00
UNAA 261300Z 00000MPS 9000 NSC M01/M08 Q1031 R02/090065 NOSIG RMK QFE750
METAR:
2019/03/26 12:21
TAF UNAA 261049Z 2612/2712 02003MPS 9999 SCT040